createdAt,value
2022-09-03T00:00:32.816Z,14.94
2022-09-03T00:03:18.958Z,14.94
2022-09-03T00:06:15.852Z,14.96
2022-09-03T00:09:06.810Z,14.98
2022-09-03T00:11:58.442Z,15.00
2022-09-03T00:14:37.380Z,14.92
2022-09-03T00:17:22.786Z,14.92
2022-09-03T00:20:02.047Z,14.97
2022-09-03T00:22:44.758Z,14.94
2022-09-03T00:25:20.175Z,14.92
2022-09-03T00:27:55.288Z,14.93
2022-09-03T00:30:24.510Z,14.94
2022-09-03T00:33:10.739Z,14.91
2022-09-03T00:35:53.828Z,14.85
2022-09-03T00:38:22.354Z,14.82
2022-09-03T00:41:06.673Z,14.78
2022-09-03T00:43:56.188Z,14.71
2022-09-03T00:46:53.650Z,14.64
2022-09-03T00:50:00.217Z,14.49
2022-09-03T00:53:04.745Z,14.35
2022-09-03T00:55:55.028Z,14.26
2022-09-03T00:58:31.202Z,14.21
2022-09-03T01:00:59.242Z,14.22
2022-09-03T01:03:51.329Z,14.03
2022-09-03T01:06:24.927Z,14.09
2022-09-03T01:09:09.559Z,14.04
2022-09-03T01:12:03.840Z,13.99
2022-09-03T01:15:14.879Z,13.96
2022-09-03T01:18:07.246Z,13.95
2022-09-03T01:21:20.252Z,13.97
2022-09-03T01:24:15.075Z,13.91
2022-09-03T01:27:11.067Z,13.88
2022-09-03T01:30:10.461Z,13.75
2022-09-03T01:33:01.698Z,13.67
2022-09-03T01:35:39.082Z,13.60
2022-09-03T01:38:36.968Z,13.64
2022-09-03T01:41:53.082Z,13.60
2022-09-03T01:44:52.954Z,13.63
2022-09-03T01:47:54.359Z,13.59
2022-09-03T01:51:17.990Z,13.52
2022-09-03T01:54:00.054Z,13.37
2022-09-03T01:57:06.609Z,13.35
2022-09-03T01:59:53.186Z,13.07
2022-09-03T02:02:27.330Z,13.12
2022-09-03T02:05:27.508Z,13.31
2022-09-03T02:08:01.435Z,13.31
2022-09-03T02:10:52.100Z,13.19
2022-09-03T02:13:49.623Z,13.09
2022-09-03T02:16:24.358Z,13.10
2022-09-03T02:19:07.573Z,12.99
2022-09-03T02:21:39.796Z,13.03
2022-09-03T02:24:09.095Z,13.07
2022-09-03T02:26:36.327Z,13.03
2022-09-03T02:29:04.516Z,13.00
2022-09-03T02:31:32.087Z,12.92
2022-09-03T02:33:59.994Z,12.89
2022-09-03T02:36:40.071Z,12.86
2022-09-03T02:39:07.987Z,12.75
2022-09-03T02:41:35.504Z,12.82
2022-09-03T02:44:30.744Z,12.81
2022-09-03T02:47:04.530Z,12.76
2022-09-03T02:49:32.657Z,12.80
2022-09-03T02:52:09.832Z,12.77
2022-09-03T02:54:39.888Z,12.36
2022-09-03T02:57:14.253Z,12.69
2022-09-03T02:59:44.186Z,12.56
2022-09-03T03:02:13.380Z,12.66
2022-09-03T03:04:40.767Z,12.63
2022-09-03T03:07:08.150Z,12.50
2022-09-03T03:09:35.205Z,12.61
2022-09-03T03:12:02.562Z,12.56
2022-09-03T03:14:29.616Z,12.59
2022-09-03T03:16:56.598Z,12.57
2022-09-03T03:19:23.805Z,12.53
2022-09-03T03:21:51.347Z,12.42
2022-09-03T03:24:18.660Z,12.35
2022-09-03T03:26:45.977Z,12.37
2022-09-03T03:29:17.915Z,12.38
2022-09-03T03:31:45.230Z,12.37
2022-09-03T03:34:12.239Z,12.37
2022-09-03T03:36:39.313Z,12.24
2022-09-03T03:39:06.291Z,12.36
2022-09-03T03:41:36.503Z,12.26
2022-09-03T03:44:07.225Z,12.18
2022-09-03T03:46:37.790Z,12.16
2022-09-03T03:49:06.953Z,12.10
2022-09-03T03:51:36.253Z,12.06
2022-09-03T03:54:05.437Z,12.07
2022-09-03T03:56:34.915Z,12.06
2022-09-03T03:59:03.400Z,12.05
2022-09-03T04:01:31.329Z,11.99
2022-09-03T04:04:00.258Z,11.88
2022-09-03T04:06:28.764Z,11.79
2022-09-03T04:08:56.123Z,11.76
2022-09-03T04:11:25.967Z,11.77
2022-09-03T04:13:53.829Z,11.71
2022-09-03T04:16:27.393Z,11.65
2022-09-03T04:18:57.407Z,11.48
2022-09-03T04:21:30.350Z,11.56
2022-09-03T04:23:58.740Z,11.50
2022-09-03T04:26:31.905Z,11.51
2022-09-03T04:29:02.339Z,11.56
2022-09-03T04:31:30.889Z,11.63
2022-09-03T04:33:59.663Z,11.69
2022-09-03T04:36:30.879Z,11.67
2022-09-03T04:39:01.670Z,11.50
2022-09-03T04:41:31.967Z,11.63
2022-09-03T04:44:00.704Z,11.62
2022-09-03T04:46:34.341Z,11.62
2022-09-03T04:49:02.365Z,11.54
2022-09-03T04:51:30.449Z,11.29
2022-09-03T04:54:02.562Z,11.43
2022-09-03T04:56:35.515Z,11.46
2022-09-03T04:59:08.070Z,11.61
2022-09-03T05:01:38.825Z,11.76
2022-09-03T05:04:07.759Z,11.84
2022-09-03T05:06:37.254Z,11.88
2022-09-03T05:09:05.620Z,11.78
2022-09-03T05:11:33.131Z,11.98
2022-09-03T05:14:00.995Z,12.00
2022-09-03T05:16:30.862Z,11.98
2022-09-03T05:19:01.470Z,11.98
2022-09-03T05:21:30.720Z,11.96
2022-09-03T05:24:01.165Z,12.03
2022-09-03T05:26:32.870Z,11.95
2022-09-03T05:29:04.315Z,11.94
2022-09-03T05:31:32.387Z,11.90
2022-09-03T05:34:03.156Z,11.82
2022-09-03T05:36:35.723Z,11.97
2022-09-03T05:39:04.873Z,11.99
2022-09-03T05:41:34.265Z,11.81
2022-09-03T05:44:02.512Z,11.91
2022-09-03T05:46:34.252Z,11.75
2022-09-03T05:49:04.441Z,11.92
2022-09-03T05:51:34.198Z,12.04
2022-09-03T05:54:02.775Z,12.15
2022-09-03T05:56:31.723Z,12.29
2022-09-03T05:59:02.063Z,12.28
2022-09-03T06:01:35.192Z,12.28
2022-09-03T06:04:10.488Z,12.22
2022-09-03T06:06:44.193Z,12.48
2022-09-03T06:09:20.960Z,12.49
2022-09-03T06:11:51.707Z,12.54
2022-09-03T06:14:21.000Z,12.62
2022-09-03T06:16:52.507Z,12.70
2022-09-03T06:19:20.145Z,12.76
2022-09-03T06:21:47.402Z,12.84
2022-09-03T06:24:26.220Z,12.87
2022-09-03T06:26:58.353Z,12.98
2022-09-03T06:29:26.034Z,13.06
2022-09-03T06:31:53.344Z,13.10
2022-09-03T06:34:22.559Z,13.11
2022-09-03T06:36:49.699Z,13.03
2022-09-03T06:39:16.809Z,13.29
2022-09-03T06:41:44.876Z,13.39
2022-09-03T06:44:12.314Z,13.42
2022-09-03T06:46:44.056Z,13.56
2022-09-03T06:49:12.177Z,13.65
2022-09-03T06:51:40.789Z,13.72
2022-09-03T06:54:11.281Z,13.84
2022-09-03T06:56:41.429Z,13.98
2022-09-03T06:59:15.329Z,14.12
2022-09-03T07:01:45.488Z,14.24
2022-09-03T07:04:19.160Z,14.34
2022-09-03T07:06:47.236Z,14.07
2022-09-03T07:09:15.761Z,14.29
2022-09-03T07:11:48.057Z,14.43
2022-09-03T07:14:18.968Z,14.45
2022-09-03T07:16:47.834Z,14.48
2022-09-03T07:19:15.476Z,14.65
2022-09-03T07:21:48.370Z,14.78
2022-09-03T07:24:18.194Z,14.86
2022-09-03T07:26:46.522Z,15.01
2022-09-03T07:29:16.021Z,15.05
2022-09-03T07:31:44.371Z,15.13
2022-09-03T07:34:13.646Z,14.94
2022-09-03T07:36:51.163Z,15.08
2022-09-03T07:39:19.826Z,15.30
2022-09-03T07:41:48.250Z,15.44
2022-09-03T07:44:19.726Z,15.57
2022-09-03T07:46:50.874Z,15.75
2022-09-03T07:49:20.197Z,15.72
2022-09-03T07:51:50.614Z,16.03
2022-09-03T07:54:18.077Z,16.02
2022-09-03T07:56:45.217Z,16.25
2022-09-03T07:59:12.429Z,16.23
2022-09-03T08:01:41.848Z,16.54
2022-09-03T08:04:10.943Z,16.57
2022-09-03T08:06:39.663Z,16.62
2022-09-03T08:09:11.468Z,16.73
2022-09-03T08:11:43.630Z,16.93
2022-09-03T08:14:14.029Z,17.06
2022-09-03T08:16:48.331Z,17.40
2022-09-03T08:19:18.309Z,17.57
2022-09-03T08:21:46.133Z,17.72
2022-09-03T08:24:17.158Z,17.95
2022-09-03T08:26:51.120Z,18.31
2022-09-03T08:29:19.969Z,18.75
2022-09-03T08:31:50.514Z,19.20
2022-09-03T08:34:18.298Z,19.50
2022-09-03T08:36:47.359Z,19.84
2022-09-03T08:39:15.626Z,20.04
2022-09-03T08:41:51.596Z,20.40
2022-09-03T08:44:28.010Z,20.78
2022-09-03T08:47:14.323Z,21.07
2022-09-03T08:49:57.520Z,21.39
2022-09-03T08:52:28.650Z,21.88
2022-09-03T08:55:04.350Z,22.62
2022-09-03T08:57:40.791Z,23.38
2022-09-03T09:00:09.045Z,23.85
2022-09-03T09:03:01.726Z,24.18
2022-09-03T09:05:52.002Z,24.75
2022-09-03T09:08:46.821Z,25.26
2022-09-03T09:11:33.660Z,25.30
2022-09-03T09:14:31.867Z,25.38
2022-09-03T09:17:32.725Z,25.46
2022-09-03T09:20:09.090Z,25.58
2022-09-03T09:22:47.226Z,26.25
2022-09-03T09:25:26.570Z,26.62
2022-09-03T09:28:30.078Z,26.93
2022-09-03T09:30:58.369Z,27.50
2022-09-03T09:33:25.780Z,26.87
2022-09-03T09:35:53.084Z,26.64
2022-09-03T09:38:49.636Z,26.67
2022-09-03T09:41:20.687Z,26.98
2022-09-03T09:43:49.125Z,27.24
2022-09-03T09:46:23.120Z,27.89
2022-09-03T09:48:57.733Z,28.68
2022-09-03T09:51:31.750Z,28.67
2022-09-03T09:54:20.053Z,29.08
2022-09-03T09:57:06.299Z,28.96
2022-09-03T09:59:38.209Z,27.96
2022-09-03T10:02:29.353Z,28.46
2022-09-03T10:05:14.916Z,28.72
2022-09-03T10:07:42.370Z,29.05
2022-09-03T10:10:21.662Z,29.24
2022-09-03T10:13:01.682Z,29.03
2022-09-03T10:15:40.002Z,29.36
2022-09-03T10:18:35.116Z,29.69
2022-09-03T10:21:15.771Z,30.40
2022-09-03T10:24:23.467Z,30.63
2022-09-03T10:26:50.822Z,30.37
2022-09-03T10:29:23.180Z,29.83
2022-09-03T10:32:38.817Z,29.95
2022-09-03T10:35:29.973Z,29.93
2022-09-03T10:38:28.067Z,29.98
2022-09-03T10:41:31.945Z,29.90
2022-09-03T10:44:19.309Z,30.19
2022-09-03T10:47:29.527Z,30.59
2022-09-03T10:50:19.243Z,30.27
2022-09-03T10:52:47.885Z,29.92
2022-09-03T10:55:32.792Z,29.82
2022-09-03T10:58:24.564Z,29.50
2022-09-03T11:01:04.698Z,29.17
2022-09-03T11:03:43.155Z,29.00
2022-09-03T11:06:29.025Z,28.59
2022-09-03T11:09:11.779Z,28.35
2022-09-03T11:11:59.118Z,28.17
2022-09-03T11:14:42.606Z,28.10
2022-09-03T11:17:26.394Z,28.48
2022-09-03T11:20:11.540Z,28.83
2022-09-03T11:22:41.023Z,29.31
2022-09-03T11:25:12.884Z,29.65
2022-09-03T11:27:43.308Z,29.45
2022-09-03T11:30:15.035Z,29.42
2022-09-03T11:33:06.480Z,29.78
2022-09-03T11:35:33.981Z,29.32
2022-09-03T11:38:03.485Z,29.06
2022-09-03T11:40:43.301Z,28.52
2022-09-03T11:43:28.348Z,28.39
2022-09-03T11:46:21.975Z,28.94
2022-09-03T11:48:55.564Z,28.84
2022-09-03T11:51:35.839Z,28.28
2022-09-03T11:54:31.416Z,27.15
2022-09-03T11:57:28.882Z,25.73
2022-09-03T12:00:14.607Z,25.73
2022-09-03T12:02:54.289Z,26.50
2022-09-03T12:05:55.759Z,27.53
2022-09-03T12:09:07.883Z,28.06
2022-09-03T12:12:06.645Z,28.33
2022-09-03T12:14:58.097Z,27.83
2022-09-03T12:18:14.874Z,27.30
2022-09-03T12:20:43.071Z,26.15
2022-09-03T12:23:25.845Z,26.11
2022-09-03T12:25:53.249Z,26.03
2022-09-03T12:28:24.922Z,25.61
2022-09-03T12:30:53.747Z,25.12
2022-09-03T12:33:23.284Z,24.39
2022-09-03T12:36:01.899Z,24.71
2022-09-03T12:38:40.638Z,24.95
2022-09-03T12:41:27.875Z,24.91
2022-09-03T12:44:00.802Z,24.92
2022-09-03T12:46:33.976Z,24.83
2022-09-03T12:52:09.485Z,25.00
2022-09-03T12:55:06.245Z,24.98
2022-09-03T12:57:45.643Z,24.67
2022-09-03T13:00:18.772Z,24.51
2022-09-03T13:03:03.800Z,24.02
2022-09-03T13:05:53.077Z,24.17
2022-09-03T13:08:28.040Z,24.21
2022-09-03T13:11:02.369Z,24.15
2022-09-03T13:13:40.728Z,23.81
2022-09-03T13:16:35.110Z,23.75
2022-09-03T13:19:21.824Z,24.03
2022-09-03T13:22:10.232Z,24.35
2022-09-03T13:25:36.076Z,24.21
2022-09-03T13:28:33.595Z,24.11
2022-09-03T13:31:16.642Z,24.12
2022-09-03T13:34:21.137Z,24.29
2022-09-03T13:37:09.300Z,24.24
2022-09-03T13:39:54.580Z,24.24
2022-09-03T13:42:55.607Z,24.64
2022-09-03T13:45:56.227Z,24.66
2022-09-03T13:48:56.161Z,24.62
2022-09-03T13:51:30.309Z,24.30
2022-09-03T13:54:47.783Z,23.85
2022-09-03T13:57:26.360Z,23.90
2022-09-03T14:00:10.518Z,23.67
2022-09-03T14:02:54.139Z,23.53
2022-09-03T14:05:41.561Z,23.45
2022-09-03T14:08:24.479Z,23.62
2022-09-03T14:11:21.706Z,23.66
2022-09-03T14:14:29.951Z,23.45
2022-09-03T14:17:30.770Z,23.37
2022-09-03T14:20:28.718Z,23.30
2022-09-03T14:23:26.429Z,23.29
2022-09-03T14:26:01.204Z,23.18
2022-09-03T14:28:38.132Z,23.18
2022-09-03T14:31:40.702Z,23.20
2022-09-03T14:35:00.765Z,23.20
2022-09-03T14:38:07.521Z,23.29
2022-09-03T14:41:09.694Z,23.43
2022-09-03T14:44:04.510Z,23.48
2022-09-03T14:47:04.186Z,23.28
2022-09-03T14:49:40.040Z,23.26
2022-09-03T14:52:36.209Z,23.16
2022-09-03T14:55:30.022Z,23.13
2022-09-03T14:58:29.801Z,23.14
2022-09-03T15:01:13.864Z,23.43
2022-09-03T15:04:15.608Z,23.64
2022-09-03T15:07:30.914Z,23.72
2022-09-03T15:10:20.707Z,23.80
2022-09-03T15:12:59.568Z,23.56
2022-09-03T15:15:41.865Z,23.69
2022-09-03T15:18:46.274Z,23.67
2022-09-03T15:22:04.482Z,23.68
2022-09-03T15:24:51.794Z,23.77
2022-09-03T15:27:44.264Z,23.75
2022-09-03T15:30:20.433Z,23.45
2022-09-03T15:33:14.042Z,23.52
2022-09-03T15:36:20.353Z,23.56
2022-09-03T15:39:09.402Z,23.51
2022-09-03T15:42:27.812Z,23.46
2022-09-03T15:45:03.173Z,23.37
2022-09-03T15:47:51.458Z,23.40
2022-09-03T15:50:57.423Z,23.20
2022-09-03T15:54:16.660Z,22.99
2022-09-03T15:57:06.354Z,22.84
2022-09-03T15:59:46.900Z,22.72
2022-09-03T16:03:01.200Z,22.55
2022-09-03T16:05:56.508Z,22.43
2022-09-03T16:09:00.516Z,22.26
2022-09-03T16:11:30.382Z,22.67
2022-09-03T16:14:51.148Z,22.66
2022-09-03T16:17:56.306Z,22.51
2022-09-03T16:20:42.522Z,22.11
2022-09-03T16:23:21.109Z,22.44
2022-09-03T16:26:16.901Z,22.45
2022-09-03T16:29:08.396Z,22.35
2022-09-03T16:31:55.797Z,22.41
2022-09-03T16:34:53.415Z,22.34
2022-09-03T16:37:27.036Z,22.28
2022-09-03T16:40:40.643Z,22.16
2022-09-03T16:43:38.894Z,22.05
2022-09-03T16:46:26.159Z,21.92
2022-09-03T16:49:10.521Z,21.85
2022-09-03T16:52:04.853Z,21.80
2022-09-03T16:55:12.436Z,21.73
2022-09-03T16:57:47.439Z,21.72
2022-09-03T17:00:20.973Z,21.62
2022-09-03T17:03:26.099Z,21.58
2022-09-03T17:06:13.414Z,21.58
2022-09-03T17:09:33.902Z,21.13
2022-09-03T17:12:20.210Z,21.40
2022-09-03T17:15:01.612Z,21.35
2022-09-03T17:18:06.314Z,21.24
2022-09-03T17:20:55.840Z,21.19
2022-09-03T17:23:38.120Z,21.21
2022-09-03T17:26:30.199Z,21.13
2022-09-03T17:29:13.524Z,21.04
2022-09-03T17:32:12.556Z,20.95
2022-09-03T17:34:49.049Z,20.88
2022-09-03T17:37:28.622Z,20.83
2022-09-03T17:40:08.287Z,20.73
2022-09-03T17:42:56.831Z,20.69
2022-09-03T17:46:07.933Z,20.50
2022-09-03T17:48:51.498Z,20.41
2022-09-03T17:51:34.468Z,20.53
2022-09-03T17:54:06.531Z,20.52
2022-09-03T17:56:48.105Z,20.42
2022-09-03T17:59:40.686Z,20.35
2022-09-03T18:02:33.027Z,20.06
2022-09-03T18:05:21.863Z,20.14
2022-09-03T18:08:14.791Z,20.12
2022-09-03T18:10:45.115Z,19.98
2022-09-03T18:13:43.648Z,19.94
2022-09-03T18:16:32.892Z,19.86
2022-09-03T18:19:29.237Z,19.84
2022-09-03T18:22:22.697Z,19.78
2022-09-03T18:25:17.754Z,19.71
2022-09-03T18:28:15.375Z,19.62
2022-09-03T18:31:00.863Z,19.30
2022-09-03T18:33:47.059Z,19.52
2022-09-03T18:36:33.075Z,19.55
2022-09-03T18:39:40.195Z,19.39
2022-09-03T18:43:24.588Z,19.31
2022-09-03T18:49:54.603Z,19.24
2022-09-03T18:53:07.491Z,19.15
2022-09-03T18:56:08.484Z,19.09
2022-09-03T18:59:08.831Z,18.99
2022-09-03T19:01:59.621Z,18.97
2022-09-03T19:05:13.222Z,18.99
2022-09-03T19:08:02.272Z,18.97
2022-09-03T19:10:59.641Z,18.92
2022-09-03T19:13:57.320Z,18.98
2022-09-03T19:17:12.403Z,18.93
2022-09-03T19:20:40.219Z,18.87
2022-09-03T19:23:25.919Z,18.67
2022-09-03T19:26:18.975Z,18.69
2022-09-03T19:29:13.046Z,18.66
2022-09-03T19:32:25.430Z,18.61
2022-09-03T19:35:56.738Z,18.56
2022-09-03T19:38:54.726Z,18.50
2022-09-03T19:41:45.007Z,18.52
2022-09-03T19:44:49.330Z,18.51
2022-09-03T19:48:06.858Z,18.44
2022-09-03T19:51:03.138Z,18.41
2022-09-03T19:53:52.719Z,18.19
2022-09-03T19:56:48.846Z,18.46
2022-09-03T19:59:42.334Z,18.53
2022-09-03T20:02:29.329Z,18.34
2022-09-03T20:05:20.642Z,18.53
2022-09-03T20:08:13.255Z,18.57
2022-09-03T20:10:43.972Z,18.53
2022-09-03T20:13:19.886Z,18.46
2022-09-03T20:16:16.577Z,18.44
2022-09-03T20:18:44.099Z,18.42
2022-09-03T20:22:08.682Z,18.40
2022-09-03T20:25:15.046Z,18.37
2022-09-03T20:28:00.810Z,18.27
2022-09-03T20:30:56.370Z,18.21
2022-09-03T20:34:06.406Z,18.14
2022-09-03T20:37:15.001Z,18.10
2022-09-03T20:40:16.512Z,18.09
2022-09-03T20:42:49.327Z,18.07
2022-09-03T20:46:13.611Z,18.03
2022-09-03T20:49:08.390Z,18.06
2022-09-03T20:51:53.175Z,18.05
2022-09-03T20:54:31.864Z,17.97
2022-09-03T20:57:31.311Z,17.82
2022-09-03T21:00:18.381Z,17.78
2022-09-03T21:03:51.355Z,17.80
2022-09-03T21:06:56.563Z,17.85
2022-09-03T21:09:58.363Z,17.86
2022-09-03T21:12:45.505Z,17.87
2022-09-03T21:15:33.521Z,17.74
2022-09-03T21:18:29.523Z,17.77
2022-09-03T21:21:20.242Z,17.71
2022-09-03T21:24:02.866Z,17.65
2022-09-03T21:26:37.084Z,17.63
2022-09-03T21:29:30.975Z,17.63
2022-09-03T21:32:12.897Z,17.60
2022-09-03T21:34:58.270Z,17.52
2022-09-03T21:37:25.688Z,17.48
2022-09-03T21:39:57.427Z,17.41
2022-09-03T21:42:34.340Z,17.35
2022-09-03T21:45:18.215Z,17.36
2022-09-03T21:47:58.358Z,17.44
2022-09-03T21:50:47.671Z,17.31
2022-09-03T21:53:44.291Z,17.31
2022-09-03T21:57:25.128Z,17.32
2022-09-03T21:59:58.354Z,17.27
2022-09-03T22:02:27.986Z,17.15
2022-09-03T22:04:57.253Z,17.04
2022-09-03T22:08:04.793Z,16.99
2022-09-03T22:10:56.961Z,16.84
2022-09-03T22:13:50.336Z,16.94
2022-09-03T22:16:33.030Z,16.86
2022-09-03T22:19:00.181Z,16.84
2022-09-03T22:21:37.009Z,16.82
2022-09-03T22:24:23.436Z,16.83
2022-09-03T22:27:10.854Z,16.82
2022-09-03T22:30:13.801Z,16.74
2022-09-03T22:33:28.782Z,16.61
2022-09-03T22:36:20.817Z,16.57
2022-09-03T22:39:13.544Z,16.48
2022-09-03T22:42:16.088Z,16.52
2022-09-03T22:44:58.286Z,16.51
2022-09-03T22:47:45.533Z,16.47
2022-09-03T22:50:31.149Z,16.37
2022-09-03T22:53:24.129Z,16.22
2022-09-03T22:56:11.606Z,16.16
2022-09-03T22:59:04.498Z,16.16
2022-09-03T23:02:00.867Z,16.20
2022-09-03T23:04:53.244Z,16.21
2022-09-03T23:07:33.242Z,16.19
2022-09-03T23:10:11.643Z,16.19
2022-09-03T23:12:53.050Z,16.18
2022-09-03T23:15:29.992Z,16.17
2022-09-03T23:18:09.545Z,16.10
2022-09-03T23:20:42.663Z,16.00
2022-09-03T23:23:29.779Z,15.93
2022-09-03T23:26:31.889Z,15.88
2022-09-03T23:29:27.591Z,15.79
2022-09-03T23:31:59.519Z,15.90
2022-09-03T23:34:27.673Z,15.91
2022-09-03T23:37:33.768Z,15.89
2022-09-03T23:40:34.592Z,15.90
2022-09-03T23:43:07.469Z,15.94
2022-09-03T23:46:15.580Z,15.94
2022-09-03T23:48:58.150Z,15.97
2022-09-03T23:52:07.210Z,15.97
2022-09-03T23:54:58.950Z,16.00
2022-09-03T23:57:46.766Z,16.08
